sensor_id;sensor_type;location;lat;lon;timestamp;pressure;altitude;pressure_sealevel;temperature;humidity
19795;BME280;10057;59.402;17.866;2023-02-12T00:01:16;102570.09;;;-2.79;72.76
19795;BME280;10057;59.402;17.866;2023-02-12T00:03:43;102572.69;;;-2.79;72.38
19795;BME280;10057;59.402;17.866;2023-02-12T00:06:10;102567.50;;;-2.79;72.42
19795;BME280;10057;59.402;17.866;2023-02-12T00:08:41;102572.75;;;-2.78;72.61
19795;BME280;10057;59.402;17.866;2023-02-12T00:11:13;102573.63;;;-2.77;72.75
19795;BME280;10057;59.402;17.866;2023-02-12T00:13:40;102568.44;;;-2.77;72.69
19795;BME280;10057;59.402;17.866;2023-02-12T00:16:09;102567.63;;;-2.76;73.11
19795;BME280;10057;59.402;17.866;2023-02-12T00:18:37;102555.44;;;-2.77;72.99
19795;BME280;10057;59.402;17.866;2023-02-12T00:21:05;102551.22;;;-2.75;73.08
19795;BME280;10057;59.402;17.866;2023-02-12T00:23:35;102555.53;;;-2.76;73.09
19795;BME280;10057;59.402;17.866;2023-02-12T00:26:13;102551.06;;;-2.78;72.62
19795;BME280;10057;59.402;17.866;2023-02-12T00:28:40;102539.72;;;-2.80;72.54
19795;BME280;10057;59.402;17.866;2023-02-12T00:31:09;102538.81;;;-2.81;73.03
19795;BME280;10057;59.402;17.866;2023-02-12T00:33:37;102536.22;;;-2.81;72.86
19795;BME280;10057;59.402;17.866;2023-02-12T00:36:04;102529.31;;;-2.80;72.41
19795;BME280;10057;59.402;17.866;2023-02-12T00:38:31;102521.50;;;-2.80;72.81
19795;BME280;10057;59.402;17.866;2023-02-12T00:40:58;102520.78;;;-2.78;72.72
19795;BME280;10057;59.402;17.866;2023-02-12T00:43:25;102515.53;;;-2.79;73.19
19795;BME280;10057;59.402;17.866;2023-02-12T00:45:51;102520.72;;;-2.79;72.94
19795;BME280;10057;59.402;17.866;2023-02-12T00:48:19;102520.72;;;-2.79;73.15
19795;BME280;10057;59.402;17.866;2023-02-12T00:50:47;102517.28;;;-2.78;73.49
19795;BME280;10057;59.402;17.866;2023-02-12T00:53:15;102524.25;;;-2.77;72.53
19795;BME280;10057;59.402;17.866;2023-02-12T00:55:42;102521.81;;;-2.74;72.85
19795;BME280;10057;59.402;17.866;2023-02-12T00:58:09;102528.72;;;-2.75;72.97
19795;BME280;10057;59.402;17.866;2023-02-12T01:00:36;102527.81;;;-2.75;72.91
19795;BME280;10057;59.402;17.866;2023-02-12T01:03:03;102527.81;;;-2.75;73.70
19795;BME280;10057;59.402;17.866;2023-02-12T01:05:30;102526.06;;;-2.76;73.21
19795;BME280;10057;59.402;17.866;2023-02-12T01:07:57;102532.97;;;-2.77;73.29
19795;BME280;10057;59.402;17.866;2023-02-12T01:10:23;102528.53;;;-2.79;73.41
19795;BME280;10057;59.402;17.866;2023-02-12T01:12:50;102525.03;;;-2.80;72.73
19795;BME280;10057;59.402;17.866;2023-02-12T01:15:17;102514.56;;;-2.81;73.17
19795;BME280;10057;59.402;17.866;2023-02-12T01:17:44;102511.06;;;-2.82;73.25
19795;BME280;10057;59.402;17.866;2023-02-12T01:20:16;102515.38;;;-2.82;73.15
19795;BME280;10057;59.402;17.866;2023-02-12T01:22:43;102521.47;;;-2.82;73.24
19795;BME280;10057;59.402;17.866;2023-02-12T01:25:10;102515.38;;;-2.82;73.35
19795;BME280;10057;59.402;17.866;2023-02-12T01:27:37;102527.53;;;-2.81;73.46
19795;BME280;10057;59.402;17.866;2023-02-12T01:30:06;102525.78;;;-2.82;73.63
19795;BME280;10057;59.402;17.866;2023-02-12T01:32:34;102530.97;;;-2.82;73.33
19795;BME280;10057;59.402;17.866;2023-02-12T01:35:01;102538.75;;;-2.82;73.16
19795;BME280;10057;59.402;17.866;2023-02-12T01:37:27;102537.09;;;-2.80;72.92
19795;BME280;10057;59.402;17.866;2023-02-12T01:39:54;102539.84;;;-2.77;72.99
19795;BME280;10057;59.402;17.866;2023-02-12T01:42:21;102538.28;;;-2.74;72.90
19795;BME280;10057;59.402;17.866;2023-02-12T01:47:43;102538.44;;;-2.71;72.73
19795;BME280;10057;59.402;17.866;2023-02-12T01:50:13;102541.09;;;-2.69;73.30
19795;BME280;10057;59.402;17.866;2023-02-12T01:52:46;102543.03;;;-2.65;73.19
19795;BME280;10057;59.402;17.866;2023-02-12T01:55:14;102526.75;;;-2.61;73.88
19795;BME280;10057;59.402;17.866;2023-02-12T01:57:42;102526.00;;;-2.58;73.15
19795;BME280;10057;59.402;17.866;2023-02-12T02:00:18;102528.78;;;-2.54;73.07
19795;BME280;10057;59.402;17.866;2023-02-12T02:02:51;102517.66;;;-2.51;73.55
19795;BME280;10057;59.402;17.866;2023-02-12T02:08:09;102510.13;;;-2.45;73.14
19795;BME280;10057;59.402;17.866;2023-02-12T02:10:36;102514.50;;;-2.44;73.40
19795;BME280;10057;59.402;17.866;2023-02-12T02:13:03;102509.44;;;-2.41;73.30
19795;BME280;10057;59.402;17.866;2023-02-12T02:15:51;102514.78;;;-2.38;73.28
19795;BME280;10057;59.402;17.866;2023-02-12T02:18:36;102514.81;;;-2.36;73.49
19795;BME280;10057;59.402;17.866;2023-02-12T02:24:30;102497.59;;;-2.34;72.79
19795;BME280;10057;59.402;17.866;2023-02-12T02:27:14;102490.75;;;-2.32;72.48
19795;BME280;10057;59.402;17.866;2023-02-12T02:35:48;102490.81;;;-2.31;72.69
19795;BME280;10057;59.402;17.866;2023-02-12T02:38:34;102476.97;;;-2.30;72.61
19795;BME280;10057;59.402;17.866;2023-02-12T02:41:19;102477.06;;;-2.28;73.03
19795;BME280;10057;59.402;17.866;2023-02-12T02:43:52;102477.13;;;-2.27;72.94
19795;BME280;10057;59.402;17.866;2023-02-12T02:46:51;102466.00;;;-2.23;72.96
19795;BME280;10057;59.402;17.866;2023-02-12T02:49:23;102472.19;;;-2.21;73.29
19795;BME280;10057;59.402;17.866;2023-02-12T02:51:55;102502.63;;;-2.18;72.69
19795;BME280;10057;59.402;17.866;2023-02-12T02:54:45;102488.81;;;-2.17;73.02
19795;BME280;10057;59.402;17.866;2023-02-12T02:57:36;102486.25;;;-2.16;73.16
19795;BME280;10057;59.402;17.866;2023-02-12T03:00:14;102482.78;;;-2.16;73.05
19795;BME280;10057;59.402;17.866;2023-02-12T03:03:00;102478.53;;;-2.14;73.16
19795;BME280;10057;59.402;17.866;2023-02-12T03:05:31;102481.31;;;-2.09;73.06
19795;BME280;10057;59.402;17.866;2023-02-12T03:08:11;102475.38;;;-2.07;73.37
19795;BME280;10057;59.402;17.866;2023-02-12T03:10:46;102476.38;;;-2.03;73.17
19795;BME280;10057;59.402;17.866;2023-02-12T03:13:24;102474.88;;;-1.98;73.16
19795;BME280;10057;59.402;17.866;2023-02-12T03:18:29;102464.78;;;-1.91;73.28
19795;BME280;10057;59.402;17.866;2023-02-12T03:21:07;102464.97;;;-1.86;73.02
19795;BME280;10057;59.402;17.866;2023-02-12T03:26:58;102448.88;;;-1.76;73.35
19795;BME280;10057;59.402;17.866;2023-02-12T03:29:30;102444.66;;;-1.74;72.71
19795;BME280;10057;59.402;17.866;2023-02-12T03:31:59;102435.25;;;-1.70;73.06
19795;BME280;10057;59.402;17.866;2023-02-12T03:37:34;102425.09;;;-1.64;72.68
19795;BME280;10057;59.402;17.866;2023-02-12T03:40:16;102439.09;;;-1.60;73.29
19795;BME280;10057;59.402;17.866;2023-02-12T03:42:52;102427.97;;;-1.56;72.46
19795;BME280;10057;59.402;17.866;2023-02-12T03:48:21;102427.41;;;-1.49;72.61
19795;BME280;10057;59.402;17.866;2023-02-12T03:50:57;102432.63;;;-1.48;73.09
19795;BME280;10057;59.402;17.866;2023-02-12T03:53:26;102424.16;;;-1.44;72.63
19795;BME280;10057;59.402;17.866;2023-02-12T03:56:00;102420.00;;;-1.38;72.98
19795;BME280;10057;59.402;17.866;2023-02-12T03:58:29;102413.19;;;-1.35;72.80
19795;BME280;10057;59.402;17.866;2023-02-12T04:00:59;102404.53;;;-1.34;72.31
19795;BME280;10057;59.402;17.866;2023-02-12T04:03:26;102405.44;;;-1.33;72.92
19795;BME280;10057;59.402;17.866;2023-02-12T04:05:53;102413.34;;;-1.30;72.53
19795;BME280;10057;59.402;17.866;2023-02-12T04:08:20;102410.06;;;-1.26;72.65
19795;BME280;10057;59.402;17.866;2023-02-12T04:18:42;102400.56;;;-1.24;72.71
19795;BME280;10057;59.402;17.866;2023-02-12T04:24:23;102401.41;;;-1.25;72.59
19795;BME280;10057;59.402;17.866;2023-02-12T04:26:58;102397.97;;;-1.24;73.08
19795;BME280;10057;59.402;17.866;2023-02-12T04:32:43;102409.22;;;-1.25;72.60
19795;BME280;10057;59.402;17.866;2023-02-12T04:35:22;102410.09;;;-1.25;72.58
19795;BME280;10057;59.402;17.866;2023-02-12T04:38:21;102410.13;;;-1.23;72.47
19795;BME280;10057;59.402;17.866;2023-02-12T04:40:50;102410.13;;;-1.23;72.84
19795;BME280;10057;59.402;17.866;2023-02-12T04:43:32;102405.88;;;-1.21;72.13
19795;BME280;10057;59.402;17.866;2023-02-12T04:46:04;102405.88;;;-1.21;72.66
19795;BME280;10057;59.402;17.866;2023-02-12T04:48:31;102392.75;;;-1.24;72.58
19795;BME280;10057;59.402;17.866;2023-02-12T04:51:00;102388.41;;;-1.24;72.89
19795;BME280;10057;59.402;17.866;2023-02-12T04:53:27;102391.88;;;-1.25;72.37
19795;BME280;10057;59.402;17.866;2023-02-12T04:55:54;102388.38;;;-1.25;72.39
19795;BME280;10057;59.402;17.866;2023-02-12T04:58:21;102383.16;;;-1.25;72.47
19795;BME280;10057;59.402;17.866;2023-02-12T05:00:48;102374.50;;;-1.24;72.57
19795;BME280;10057;59.402;17.866;2023-02-12T05:03:15;102367.66;;;-1.22;72.51
19795;BME280;10057;59.402;17.866;2023-02-12T05:05:41;102368.59;;;-1.20;72.48
19795;BME280;10057;59.402;17.866;2023-02-12T05:08:08;102356.47;;;-1.20;72.81
19795;BME280;10057;59.402;17.866;2023-02-12T05:10:35;102360.75;;;-1.20;72.95
19795;BME280;10057;59.402;17.866;2023-02-12T05:13:01;102356.47;;;-1.20;72.65
19795;BME280;10057;59.402;17.866;2023-02-12T05:15:28;102353.91;;;-1.18;72.22
19795;BME280;10057;59.402;17.866;2023-02-12T05:17:56;102356.50;;;-1.18;72.31
19795;BME280;10057;59.402;17.866;2023-02-12T05:20:23;102360.97;;;-1.15;72.56
19795;BME280;10057;59.402;17.866;2023-02-12T05:22:52;102346.22;;;-1.15;72.63
19795;BME280;10057;59.402;17.866;2023-02-12T05:25:19;102349.75;;;-1.13;72.64
19795;BME280;10057;59.402;17.866;2023-02-12T05:27:46;102336.72;;;-1.13;72.38
19795;BME280;10057;59.402;17.866;2023-02-12T05:30:13;102338.50;;;-1.12;72.59
19795;BME280;10057;59.402;17.866;2023-02-12T05:32:39;102323.75;;;-1.11;72.63
19795;BME280;10057;59.402;17.866;2023-02-12T05:35:07;102312.50;;;-1.10;72.46
19795;BME280;10057;59.402;17.866;2023-02-12T05:37:34;102313.38;;;-1.10;72.66
19795;BME280;10057;59.402;17.866;2023-02-12T05:40:04;102312.63;;;-1.07;72.86
19795;BME280;10057;59.402;17.866;2023-02-12T05:42:31;102315.31;;;-1.04;72.27
19795;BME280;10057;59.402;17.866;2023-02-12T05:44:58;102310.13;;;-1.04;72.21
19795;BME280;10057;59.402;17.866;2023-02-12T05:47:24;102306.63;;;-1.05;72.62
19795;BME280;10057;59.402;17.866;2023-02-12T05:49:51;102307.56;;;-1.03;72.84
19795;BME280;10057;59.402;17.866;2023-02-12T05:52:18;102304.91;;;-1.04;72.50
19795;BME280;10057;59.402;17.866;2023-02-12T05:54:48;102307.56;;;-1.03;72.63
19795;BME280;10057;59.402;17.866;2023-02-12T05:57:14;102314.56;;;-1.02;72.69
19795;BME280;10057;59.402;17.866;2023-02-12T05:59:41;102310.25;;;-1.00;72.95
19795;BME280;10057;59.402;17.866;2023-02-12T06:02:08;102310.25;;;-1.00;72.67
19795;BME280;10057;59.402;17.866;2023-02-12T06:04:34;102319.88;;;-0.99;72.58
19795;BME280;10057;59.402;17.866;2023-02-12T06:07:01;102322.59;;;-0.96;73.08
19795;BME280;10057;59.402;17.866;2023-02-12T06:09:28;102326.97;;;-0.94;72.82
19795;BME280;10057;59.402;17.866;2023-02-12T06:11:54;102321.75;;;-0.94;73.26
19795;BME280;10057;59.402;17.866;2023-02-12T06:14:21;102328.72;;;-0.93;72.91
19795;BME280;10057;59.402;17.866;2023-02-12T06:16:50;102322.69;;;-0.92;72.39
19795;BME280;10057;59.402;17.866;2023-02-12T06:19:18;102316.66;;;-0.91;72.56
19795;BME280;10057;59.402;17.866;2023-02-12T06:21:45;102309.66;;;-0.92;72.85
19795;BME280;10057;59.402;17.866;2023-02-12T06:24:13;102307.13;;;-0.91;72.88
19795;BME280;10057;59.402;17.866;2023-02-12T06:26:41;102308.00;;;-0.90;73.03
19795;BME280;10057;59.402;17.866;2023-02-12T06:29:08;102320.19;;;-0.89;72.94
19795;BME280;10057;59.402;17.866;2023-02-12T06:31:35;102311.56;;;-0.88;73.01
19795;BME280;10057;59.402;17.866;2023-02-12T06:34:06;102305.50;;;-0.87;72.88
19795;BME280;10057;59.402;17.866;2023-02-12T06:36:39;102307.25;;;-0.86;73.12
19795;BME280;10057;59.402;17.866;2023-02-12T06:39:07;102297.78;;;-0.84;72.64
19795;BME280;10057;59.402;17.866;2023-02-12T06:41:34;102296.09;;;-0.82;72.86
19795;BME280;10057;59.402;17.866;2023-02-12T06:44:00;102285.69;;;-0.82;72.75
19795;BME280;10057;59.402;17.866;2023-02-12T06:46:27;102290.06;;;-0.81;73.12
19795;BME280;10057;59.402;17.866;2023-02-12T06:48:55;102299.66;;;-0.80;73.21
19795;BME280;10057;59.402;17.866;2023-02-12T06:51:24;102298.81;;;-0.79;72.74
19795;BME280;10057;59.402;17.866;2023-02-12T06:53:52;102301.50;;;-0.78;73.12
19795;BME280;10057;59.402;17.866;2023-02-12T06:56:20;102299.75;;;-0.77;73.13
19795;BME280;10057;59.402;17.866;2023-02-12T06:58:53;102298.91;;;-0.76;73.18
19795;BME280;10057;59.402;17.866;2023-02-12T07:01:25;102299.00;;;-0.75;73.53
19795;BME280;10057;59.402;17.866;2023-02-12T07:03:57;102292.97;;;-0.72;73.09
19795;BME280;10057;59.402;17.866;2023-02-12T07:06:26;102291.28;;;-0.72;73.36
19795;BME280;10057;59.402;17.866;2023-02-12T07:08:54;102286.97;;;-0.69;73.52
19795;BME280;10057;59.402;17.866;2023-02-12T07:11:25;102276.56;;;-0.69;73.40
19795;BME280;10057;59.402;17.866;2023-02-12T07:13:52;102270.56;;;-0.67;73.30
19795;BME280;10057;59.402;17.866;2023-02-12T07:16:19;102277.59;;;-0.64;73.44
19795;BME280;10057;59.402;17.866;2023-02-12T07:18:46;102275.03;;;-0.63;73.22
19795;BME280;10057;59.402;17.866;2023-02-12T07:21:14;102269.91;;;-0.61;73.35
19795;BME280;10057;59.402;17.866;2023-02-12T07:23:45;102268.06;;;-0.64;73.31
19795;BME280;10057;59.402;17.866;2023-02-12T07:26:17;102270.81;;;-0.59;73.51
19795;BME280;10057;59.402;17.866;2023-02-12T07:28:44;102272.56;;;-0.58;73.47
19795;BME280;10057;59.402;17.866;2023-02-12T07:31:13;102266.56;;;-0.56;73.66
19795;BME280;10057;59.402;17.866;2023-02-12T07:33:42;102270.13;;;-0.54;73.64
19795;BME280;10057;59.402;17.866;2023-02-12T07:36:11;102273.72;;;-0.50;73.81
19795;BME280;10057;59.402;17.866;2023-02-12T07:38:39;102276.38;;;-0.49;73.72
19795;BME280;10057;59.402;17.866;2023-02-12T07:43:40;102268.72;;;-0.44;73.75
19795;BME280;10057;59.402;17.866;2023-02-12T07:46:14;102267.91;;;-0.41;73.70
19795;BME280;10057;59.402;17.866;2023-02-12T07:48:43;102273.22;;;-0.38;73.68
19795;BME280;10057;59.402;17.866;2023-02-12T07:51:15;102272.44;;;-0.36;73.83
19795;BME280;10057;59.402;17.866;2023-02-12T07:53:44;102265.56;;;-0.34;73.86
19795;BME280;10057;59.402;17.866;2023-02-12T07:56:17;102260.38;;;-0.32;73.93
19795;BME280;10057;59.402;17.866;2023-02-12T07:58:45;102252.66;;;-0.29;73.68
19795;BME280;10057;59.402;17.866;2023-02-12T08:01:14;102250.16;;;-0.26;73.59
19795;BME280;10057;59.402;17.866;2023-02-12T08:03:42;102258.94;;;-0.22;73.88
19795;BME280;10057;59.402;17.866;2023-02-12T08:06:11;102242.53;;;-0.20;73.83
19795;BME280;10057;59.402;17.866;2023-02-12T08:08:38;102240.81;;;-0.18;73.86
19795;BME280;10057;59.402;17.866;2023-02-12T08:11:07;102234.81;;;-0.15;73.75
19795;BME280;10057;59.402;17.866;2023-02-12T08:13:35;102224.50;;;-0.11;73.72
19795;BME280;10057;59.402;17.866;2023-02-12T08:16:07;102213.28;;;-0.08;73.80
19795;BME280;10057;59.402;17.866;2023-02-12T08:18:35;102211.66;;;-0.05;73.83
19795;BME280;10057;59.402;17.866;2023-02-12T08:21:07;102211.75;;;-0.02;73.86
19795;BME280;10057;59.402;17.866;2023-02-12T08:23:34;102217.09;;;0.03;73.94
19795;BME280;10057;59.402;17.866;2023-02-12T08:28:53;102201.63;;;0.09;73.95
19795;BME280;10057;59.402;17.866;2023-02-12T08:31:25;102201.72;;;0.12;73.91
19795;BME280;10057;59.402;17.866;2023-02-12T08:33:54;102196.63;;;0.17;74.00
19795;BME280;10057;59.402;17.866;2023-02-12T08:36:23;102193.22;;;0.19;74.02
19795;BME280;10057;59.402;17.866;2023-02-12T08:38:51;102182.91;;;0.24;74.03
19795;BME280;10057;59.402;17.866;2023-02-12T08:41:23;102182.97;;;0.27;74.01
19795;BME280;10057;59.402;17.866;2023-02-12T08:43:52;102187.50;;;0.33;74.26
19795;BME280;10057;59.402;17.866;2023-02-12T08:46:41;102177.13;;;0.34;74.14
19795;BME280;10057;59.402;17.866;2023-02-12T08:49:14;102188.56;;;0.39;74.19
19795;BME280;10057;59.402;17.866;2023-02-12T08:51:44;102192.16;;;0.44;74.18
19795;BME280;10057;59.402;17.866;2023-02-12T08:54:14;102199.19;;;0.47;74.26
19795;BME280;10057;59.402;17.866;2023-02-12T08:56:41;102214.09;;;0.51;74.28
19795;BME280;10057;59.402;17.866;2023-02-12T08:59:09;102218.53;;;0.54;74.49
19795;BME280;10057;59.402;17.866;2023-02-12T09:01:37;102215.16;;;0.58;74.30
19795;BME280;10057;59.402;17.866;2023-02-12T09:04:05;102223.13;;;0.62;74.57
19795;BME280;10057;59.402;17.866;2023-02-12T09:06:34;102227.59;;;0.66;74.77
19795;BME280;10057;59.402;17.866;2023-02-12T09:09:02;102227.63;;;0.68;74.58
19795;BME280;10057;59.402;17.866;2023-02-12T09:11:28;102215.50;;;0.70;74.52
19795;BME280;10057;59.402;17.866;2023-02-12T09:14:01;102217.34;;;0.74;74.73
19795;BME280;10057;59.402;17.866;2023-02-12T09:16:29;102229.63;;;0.78;74.88
19795;BME280;10057;59.402;17.866;2023-02-12T09:18:57;102220.22;;;0.83;75.08
19795;BME280;10057;59.402;17.866;2023-02-12T09:21:24;102219.47;;;0.89;75.05
19795;BME280;10057;59.402;17.866;2023-02-12T09:23:52;102222.25;;;0.95;74.92
19795;BME280;10057;59.402;17.866;2023-02-12T09:26:21;102211.84;;;0.97;74.91
19795;BME280;10057;59.402;17.866;2023-02-12T09:28:49;102213.72;;;1.02;75.09
19795;BME280;10057;59.402;17.866;2023-02-12T09:31:26;102206.88;;;1.07;74.77
19795;BME280;10057;59.402;17.866;2023-02-12T09:33:58;102199.16;;;1.12;74.99
19795;BME280;10057;59.402;17.866;2023-02-12T09:36:25;102201.03;;;1.17;74.92
19795;BME280;10057;59.402;17.866;2023-02-12T09:38:52;102193.28;;;1.21;74.95
19795;BME280;10057;59.402;17.866;2023-02-12T09:44:21;102178.69;;;1.30;75.21
19795;BME280;10057;59.402;17.866;2023-02-12T09:49:40;102166.66;;;1.38;75.02
19795;BME280;10057;59.402;17.866;2023-02-12T09:52:15;102168.47;;;1.41;74.80
19795;BME280;10057;59.402;17.866;2023-02-12T09:54:43;102170.25;;;1.43;75.30
19795;BME280;10057;59.402;17.866;2023-02-12T09:57:22;102162.53;;;1.48;74.99
19795;BME280;10057;59.402;17.866;2023-02-12T09:59:55;102148.69;;;1.54;75.09
19795;BME280;10057;59.402;17.866;2023-02-12T10:02:23;102154.00;;;1.57;75.49
19795;BME280;10057;59.402;17.866;2023-02-12T10:04:51;102151.44;;;1.60;75.55
19795;BME280;10057;59.402;17.866;2023-02-12T10:13:58;102154.38;;;1.74;75.71
19795;BME280;10057;59.402;17.866;2023-02-12T10:25:47;102138.00;;;1.82;75.46
19795;BME280;10057;59.402;17.866;2023-02-12T10:28:26;102124.03;;;1.83;75.59
19795;BME280;10057;59.402;17.866;2023-02-12T10:30:59;102132.84;;;1.87;75.48
19795;BME280;10057;59.402;17.866;2023-02-12T10:33:38;102127.72;;;1.92;75.85
19795;BME280;10057;59.402;17.866;2023-02-12T10:38:43;102125.31;;;2.02;75.87
19795;BME280;10057;59.402;17.866;2023-02-12T10:41:14;102125.41;;;2.07;75.48
19795;BME280;10057;59.402;17.866;2023-02-12T10:43:42;102129.00;;;2.12;75.54
19795;BME280;10057;59.402;17.866;2023-02-12T10:46:16;102120.28;;;2.13;75.35
19795;BME280;10057;59.402;17.866;2023-02-12T10:48:45;102112.50;;;2.16;75.95
19795;BME280;10057;59.402;17.866;2023-02-12T10:51:24;102118.66;;;2.20;75.40
19795;BME280;10057;59.402;17.866;2023-02-12T10:54:30;102109.13;;;2.23;75.61
19795;BME280;10057;59.402;17.866;2023-02-12T10:56:58;102116.13;;;2.24;75.43
19795;BME280;10057;59.402;17.866;2023-02-12T10:59:25;102117.06;;;2.26;75.45
19795;BME280;10057;59.402;17.866;2023-02-12T11:01:52;102117.94;;;2.28;75.90
19795;BME280;10057;59.402;17.866;2023-02-12T11:04:31;102115.31;;;2.28;75.79
19795;BME280;10057;59.402;17.866;2023-02-12T11:07:07;102115.38;;;2.30;75.47
19795;BME280;10057;59.402;17.866;2023-02-12T11:09:40;102099.66;;;2.31;75.56
19795;BME280;10057;59.402;17.866;2023-02-12T11:14:52;102110.25;;;2.36;75.92
19795;BME280;10057;59.402;17.866;2023-02-12T11:17:34;102106.78;;;2.37;76.05
19795;BME280;10057;59.402;17.866;2023-02-12T11:22:57;102107.75;;;2.44;75.98
19795;BME280;10057;59.402;17.866;2023-02-12T11:25:27;102100.84;;;2.47;75.89
19795;BME280;10057;59.402;17.866;2023-02-12T11:28:17;102104.41;;;2.51;75.60
19795;BME280;10057;59.402;17.866;2023-02-12T11:30:58;102100.03;;;2.53;75.96
19795;BME280;10057;59.402;17.866;2023-02-12T11:33:33;102096.59;;;2.54;76.12
19795;BME280;10057;59.402;17.866;2023-02-12T11:36:13;102101.88;;;2.57;76.03
19795;BME280;10057;59.402;17.866;2023-02-12T11:38:51;102096.66;;;2.58;75.99
19795;BME280;10057;59.402;17.866;2023-02-12T11:43:52;102087.16;;;2.65;76.28
19795;BME280;10057;59.402;17.866;2023-02-12T11:46:22;102080.22;;;2.67;76.07
19795;BME280;10057;59.402;17.866;2023-02-12T11:48:56;102078.50;;;2.69;75.82
19795;BME280;10057;59.402;17.866;2023-02-12T11:51:25;102074.16;;;2.71;75.88
19795;BME280;10057;59.402;17.866;2023-02-12T11:53:58;102075.06;;;2.73;75.86
19795;BME280;10057;59.402;17.866;2023-02-12T11:56:41;102076.84;;;2.76;76.19
19795;BME280;10057;59.402;17.866;2023-02-12T11:59:16;102076.94;;;2.80;75.96
19795;BME280;10057;59.402;17.866;2023-02-12T12:01:50;102062.97;;;2.83;76.00
19795;BME280;10057;59.402;17.866;2023-02-12T12:04:20;102068.31;;;2.88;76.38
19795;BME280;10057;59.402;17.866;2023-02-12T12:06:59;102075.38;;;2.92;76.00
19795;BME280;10057;59.402;17.866;2023-02-12T12:09:42;102071.88;;;2.93;76.04
19795;BME280;10057;59.402;17.866;2023-02-12T12:14:54;102071.09;;;2.98;76.03
19795;BME280;10057;59.402;17.866;2023-02-12T12:17:47;102072.84;;;2.99;76.20
19795;BME280;10057;59.402;17.866;2023-02-12T12:20:55;102069.41;;;3.02;76.18
19795;BME280;10057;59.402;17.866;2023-02-12T12:23:48;102073.78;;;3.03;76.11
19795;BME280;10057;59.402;17.866;2023-02-12T12:26:23;102065.97;;;3.04;76.21
19795;BME280;10057;59.402;17.866;2023-02-12T12:31:53;102079.09;;;3.07;76.21
19795;BME280;10057;59.402;17.866;2023-02-12T12:34:22;102071.25;;;3.09;76.16
19795;BME280;10057;59.402;17.866;2023-02-12T12:37:08;102064.28;;;3.11;76.16
19795;BME280;10057;59.402;17.866;2023-02-12T12:57:51;102060.91;;;3.18;76.10
19795;BME280;10057;59.402;17.866;2023-02-12T13:22:32;102065.34;;;3.22;76.56
19795;BME280;10057;59.402;17.866;2023-02-12T13:27:50;102074.09;;;3.24;76.59
19795;BME280;10057;59.402;17.866;2023-02-12T13:30:31;102060.97;;;3.24;76.90
19795;BME280;10057;59.402;17.866;2023-02-12T13:33:09;102067.13;;;3.26;76.65
19795;BME280;10057;59.402;17.866;2023-02-12T13:35:40;102059.25;;;3.25;77.03
19795;BME280;10057;59.402;17.866;2023-02-12T13:38:16;102068.00;;;3.27;77.04
19795;BME280;10057;59.402;17.866;2023-02-12T13:40:44;102075.00;;;3.26;76.76
19795;BME280;10057;59.402;17.866;2023-02-12T13:43:34;102073.25;;;3.27;76.97
19795;BME280;10057;59.402;17.866;2023-02-12T13:46:38;102069.75;;;3.26;77.38
19795;BME280;10057;59.402;17.866;2023-02-12T13:49:22;102080.25;;;3.25;76.79
19795;BME280;10057;59.402;17.866;2023-02-12T13:52:01;102082.81;;;3.23;76.69
19795;BME280;10057;59.402;17.866;2023-02-12T13:54:52;102081.91;;;3.20;76.75
19795;BME280;10057;59.402;17.866;2023-02-12T13:57:21;102087.16;;;3.20;76.85
19795;BME280;10057;59.402;17.866;2023-02-12T13:59:55;102095.88;;;3.19;76.80
19795;BME280;10057;59.402;17.866;2023-02-12T14:04:59;102082.69;;;3.14;76.87
19795;BME280;10057;59.402;17.866;2023-02-12T14:07:49;102078.34;;;3.15;76.82
19795;BME280;10057;59.402;17.866;2023-02-12T14:14:00;102075.63;;;3.08;76.90
19795;BME280;10057;59.402;17.866;2023-02-12T14:22:01;102075.47;;;2.98;77.30
19795;BME280;10057;59.402;17.866;2023-02-12T14:27:03;102079.72;;;2.91;77.62
19795;BME280;10057;59.402;17.866;2023-02-12T14:29:32;102074.44;;;2.88;77.58
19795;BME280;10057;59.402;17.866;2023-02-12T14:31:58;102072.66;;;2.85;77.51
19795;BME280;10057;59.402;17.866;2023-02-12T14:37:15;102076.03;;;2.78;77.82
19795;BME280;10057;59.402;17.866;2023-02-12T14:39:43;102066.34;;;2.74;77.93
19795;BME280;10057;59.402;17.866;2023-02-12T14:44:55;102065.38;;;2.69;78.49
19795;BME280;10057;59.402;17.866;2023-02-12T14:50:02;102065.28;;;2.63;78.66
19795;BME280;10057;59.402;17.866;2023-02-12T14:52:37;102059.16;;;2.61;78.27
19795;BME280;10057;59.402;17.866;2023-02-12T14:55:16;102068.72;;;2.59;78.58
19795;BME280;10057;59.402;17.866;2023-02-12T14:57:44;102079.13;;;2.56;78.82
19795;BME280;10057;59.402;17.866;2023-02-12T15:05:21;102079.94;;;2.52;78.99
19795;BME280;10057;59.402;17.866;2023-02-12T15:07:54;102078.16;;;2.49;79.10
19795;BME280;10057;59.402;17.866;2023-02-12T15:10:23;102087.75;;;2.47;79.20
19795;BME280;10057;59.402;17.866;2023-02-12T15:12:56;102086.81;;;2.44;79.20
19795;BME280;10057;59.402;17.866;2023-02-12T15:15:46;102094.56;;;2.39;79.34
19795;BME280;10057;59.402;17.866;2023-02-12T15:23:41;102098.72;;;2.28;79.45
19795;BME280;10057;59.402;17.866;2023-02-12T15:26:15;102103.09;;;2.26;79.51
19795;BME280;10057;59.402;17.866;2023-02-12T15:28:45;102095.19;;;2.24;79.75
19795;BME280;10057;59.402;17.866;2023-02-12T15:31:15;102084.63;;;2.21;79.75
19795;BME280;10057;59.402;17.866;2023-02-12T15:33:48;102089.00;;;2.21;79.71
19795;BME280;10057;59.402;17.866;2023-02-12T15:36:20;102082.88;;;2.20;79.78
19795;BME280;10057;59.402;17.866;2023-02-12T15:38:51;102082.88;;;2.20;80.05
19795;BME280;10057;59.402;17.866;2023-02-12T15:41:36;102080.28;;;2.20;79.87
19795;BME280;10057;59.402;17.866;2023-02-12T15:44:29;102078.50;;;2.19;79.83
19795;BME280;10057;59.402;17.866;2023-02-12T15:47:11;102082.84;;;2.19;80.20